sensor_id;sensor_type;location;lat;lon;timestamp;pressure;altitude;pressure_sealevel;temperature;humidity
53514;BME280;39768;54.148;12.174;2023-03-14T00:00:30;98666.97;;;14.69;100.00
53514;BME280;39768;54.148;12.174;2023-03-14T00:04:32;98661.69;;;14.25;100.00
53514;BME280;39768;54.148;12.174;2023-03-14T00:08:33;98668.50;;;14.44;100.00
53514;BME280;39768;54.148;12.174;2023-03-14T00:12:35;98667.94;;;14.68;100.00
53514;BME280;39768;54.148;12.174;2023-03-14T00:16:37;98687.97;;;14.46;100.00
53514;BME280;39768;54.148;12.174;2023-03-14T00:20:38;98685.34;;;14.31;100.00
53514;BME280;39768;54.148;12.174;2023-03-14T00:24:40;98665.63;;;14.62;100.00
53514;BME280;39768;54.148;12.174;2023-03-14T00:28:42;98669.56;;;14.42;100.00
53514;BME280;39768;54.148;12.174;2023-03-14T00:32:44;98664.28;;;14.83;100.00
53514;BME280;39768;54.148;12.174;2023-03-14T00:36:45;98663.25;;;14.57;100.00
53514;BME280;39768;54.148;12.174;2023-03-14T00:40:47;98666.31;;;14.51;100.00
53514;BME280;39768;54.148;12.174;2023-03-14T00:44:48;98677.00;;;14.51;100.00
53514;BME280;39768;54.148;12.174;2023-03-14T00:48:50;98690.88;;;14.28;100.00
53514;BME280;39768;54.148;12.174;2023-03-14T00:52:51;98674.16;;;14.54;100.00
53514;BME280;39768;54.148;12.174;2023-03-14T00:56:53;98671.06;;;14.74;100.00
53514;BME280;39768;54.148;12.174;2023-03-14T01:00:54;98670.22;;;14.60;100.00
53514;BME280;39768;54.148;12.174;2023-03-14T01:04:56;98669.66;;;14.69;100.00
53514;BME280;39768;54.148;12.174;2023-03-14T01:08:58;98675.56;;;14.60;100.00
53514;BME280;39768;54.148;12.174;2023-03-14T01:13:01;98669.59;;;14.12;100.00
53514;BME280;39768;54.148;12.174;2023-03-14T01:17:02;98655.13;;;14.30;100.00
53514;BME280;39768;54.148;12.174;2023-03-14T01:21:13;98636.09;;;14.51;100.00
53514;BME280;39768;54.148;12.174;2023-03-14T01:25:16;98618.44;;;14.34;100.00
53514;BME280;39768;54.148;12.174;2023-03-14T01:29:18;98616.53;;;14.22;100.00
53514;BME280;39768;54.148;12.174;2023-03-14T01:33:20;98623.44;;;14.54;100.00
53514;BME280;39768;54.148;12.174;2023-03-14T01:37:22;98624.44;;;14.66;100.00
53514;BME280;39768;54.148;12.174;2023-03-14T01:41:25;98633.84;;;14.71;100.00
53514;BME280;39768;54.148;12.174;2023-03-14T01:50:09;98660.44;;;14.87;100.00
53514;BME280;39768;54.148;12.174;2023-03-14T01:54:19;98654.06;;;14.75;100.00
53514;BME280;39768;54.148;12.174;2023-03-14T01:58:25;98656.78;;;14.61;100.00
53514;BME280;39768;54.148;12.174;2023-03-14T02:02:29;98644.91;;;14.79;100.00
53514;BME280;39768;54.148;12.174;2023-03-14T02:06:51;98650.31;;;14.51;100.00
53514;BME280;39768;54.148;12.174;2023-03-14T02:10:56;98638.25;;;14.72;100.00
53514;BME280;39768;54.148;12.174;2023-03-14T02:15:11;98645.59;;;14.55;100.00
53514;BME280;39768;54.148;12.174;2023-03-14T02:19:35;98642.19;;;14.67;100.00
53514;BME280;39768;54.148;12.174;2023-03-14T02:24:17;98626.94;;;14.69;100.00
53514;BME280;39768;54.148;12.174;2023-03-14T02:28:29;98621.97;;;14.34;100.00
53514;BME280;39768;54.148;12.174;2023-03-14T02:32:36;98612.22;;;14.76;100.00
53514;BME280;39768;54.148;12.174;2023-03-14T02:36:40;98610.53;;;14.46;100.00
53514;BME280;39768;54.148;12.174;2023-03-14T02:40:41;98602.69;;;14.58;100.00
53514;BME280;39768;54.148;12.174;2023-03-14T02:44:52;98599.72;;;14.76;100.00
53514;BME280;39768;54.148;12.174;2023-03-14T02:49:02;98581.88;;;14.77;100.00
53514;BME280;39768;54.148;12.174;2023-03-14T02:53:05;98574.09;;;14.87;100.00
53514;BME280;39768;54.148;12.174;2023-03-14T02:57:08;98560.56;;;14.90;100.00
53514;BME280;39768;54.148;12.174;2023-03-14T03:01:09;98558.41;;;14.82;100.00
53514;BME280;39768;54.148;12.174;2023-03-14T03:05:12;98558.69;;;15.04;100.00
53514;BME280;39768;54.148;12.174;2023-03-14T03:09:13;98555.47;;;14.72;100.00
53514;BME280;39768;54.148;12.174;2023-03-14T03:13:15;98556.94;;;14.91;100.00
53514;BME280;39768;54.148;12.174;2023-03-14T03:17:19;98562.66;;;15.11;99.90
53514;BME280;39768;54.148;12.174;2023-03-14T03:21:20;98556.78;;;14.79;100.00
53514;BME280;39768;54.148;12.174;2023-03-14T03:25:24;98564.94;;;15.30;97.08
53514;BME280;39768;54.148;12.174;2023-03-14T03:29:26;98559.53;;;15.05;97.96
53514;BME280;39768;54.148;12.174;2023-03-14T03:33:28;98561.81;;;14.84;98.71
53514;BME280;39768;54.148;12.174;2023-03-14T03:37:31;98563.47;;;15.26;96.86
53514;BME280;39768;54.148;12.174;2023-03-14T03:41:33;98560.97;;;15.10;96.61
53514;BME280;39768;54.148;12.174;2023-03-14T03:45:35;98546.53;;;14.86;98.90
53514;BME280;39768;54.148;12.174;2023-03-14T03:49:39;98563.25;;;15.02;97.85
53514;BME280;39768;54.148;12.174;2023-03-14T03:53:43;98568.41;;;15.05;95.62
53514;BME280;39768;54.148;12.174;2023-03-14T03:57:48;98568.88;;;14.85;96.85
53514;BME280;39768;54.148;12.174;2023-03-14T04:01:49;98568.47;;;15.31;93.36
53514;BME280;39768;54.148;12.174;2023-03-14T04:05:58;98557.22;;;15.13;94.30
53514;BME280;39768;54.148;12.174;2023-03-14T04:10:00;98546.34;;;14.62;100.00
53514;BME280;39768;54.148;12.174;2023-03-14T04:14:08;98525.75;;;14.64;100.00
53514;BME280;39768;54.148;12.174;2023-03-14T04:18:09;98499.75;;;14.80;100.00
53514;BME280;39768;54.148;12.174;2023-03-14T04:22:11;98487.06;;;14.97;100.00
53514;BME280;39768;54.148;12.174;2023-03-14T04:26:21;98475.56;;;14.42;100.00
53514;BME280;39768;54.148;12.174;2023-03-14T04:30:22;98469.25;;;14.43;100.00
53514;BME280;39768;54.148;12.174;2023-03-14T04:34:27;98465.72;;;14.02;100.00
53514;BME280;39768;54.148;12.174;2023-03-14T04:38:31;98472.41;;;14.09;100.00
53514;BME280;39768;54.148;12.174;2023-03-14T04:42:33;98467.19;;;13.93;100.00
53514;BME280;39768;54.148;12.174;2023-03-14T04:46:35;98466.66;;;14.15;100.00
53514;BME280;39768;54.148;12.174;2023-03-14T04:50:39;98472.53;;;13.93;100.00
53514;BME280;39768;54.148;12.174;2023-03-14T04:54:41;98465.84;;;14.27;100.00
53514;BME280;39768;54.148;12.174;2023-03-14T04:58:43;98471.59;;;14.21;100.00
53514;BME280;39768;54.148;12.174;2023-03-14T05:02:48;98457.50;;;13.78;100.00
53514;BME280;39768;54.148;12.174;2023-03-14T05:06:57;98449.22;;;14.24;100.00
53514;BME280;39768;54.148;12.174;2023-03-14T05:11:14;98455.81;;;14.04;100.00
53514;BME280;39768;54.148;12.174;2023-03-14T05:15:33;98459.81;;;13.97;100.00
53514;BME280;39768;54.148;12.174;2023-03-14T05:19:47;98464.97;;;14.00;100.00
53514;BME280;39768;54.148;12.174;2023-03-14T05:24:09;98447.28;;;13.85;100.00
53514;BME280;39768;54.148;12.174;2023-03-14T05:28:20;98439.88;;;13.75;100.00
53514;BME280;39768;54.148;12.174;2023-03-14T05:32:45;98436.47;;;13.31;100.00
53514;BME280;39768;54.148;12.174;2023-03-14T05:36:49;98431.22;;;13.29;100.00
53514;BME280;39768;54.148;12.174;2023-03-14T05:41:19;98437.88;;;13.79;100.00
53514;BME280;39768;54.148;12.174;2023-03-14T05:45:48;98434.25;;;13.52;100.00
53514;BME280;39768;54.148;12.174;2023-03-14T05:50:05;98426.22;;;13.94;100.00
53514;BME280;39768;54.148;12.174;2023-03-14T05:54:29;98420.53;;;14.13;100.00
53514;BME280;39768;54.148;12.174;2023-03-14T05:58:51;98424.91;;;14.14;100.00
53514;BME280;39768;54.148;12.174;2023-03-14T06:03:01;98429.25;;;14.29;100.00
53514;BME280;39768;54.148;12.174;2023-03-14T06:07:07;98425.72;;;14.02;100.00
53514;BME280;39768;54.148;12.174;2023-03-14T06:11:09;98420.56;;;14.40;100.00
53514;BME280;39768;54.148;12.174;2023-03-14T06:15:11;98425.25;;;14.63;98.95
53514;BME280;39768;54.148;12.174;2023-03-14T06:19:14;98421.22;;;14.43;98.48
53514;BME280;39768;54.148;12.174;2023-03-14T06:23:16;98420.25;;;14.44;99.26
53514;BME280;39768;54.148;12.174;2023-03-14T06:27:18;98418.91;;;14.52;99.29
53514;BME280;39768;54.148;12.174;2023-03-14T06:31:20;98414.28;;;14.80;99.93
53514;BME280;39768;54.148;12.174;2023-03-14T06:35:28;98419.28;;;14.85;97.87
53514;BME280;39768;54.148;12.174;2023-03-14T06:39:29;98421.47;;;15.05;96.50
53514;BME280;39768;54.148;12.174;2023-03-14T06:43:39;98415.25;;;15.17;95.62
53514;BME280;39768;54.148;12.174;2023-03-14T06:47:42;98408.84;;;15.07;97.15
53514;BME280;39768;54.148;12.174;2023-03-14T06:51:44;98406.63;;;15.39;95.12
53514;BME280;39768;54.148;12.174;2023-03-14T06:55:46;98404.91;;;15.26;94.39
53514;BME280;39768;54.148;12.174;2023-03-14T06:59:50;98409.28;;;15.39;94.41
53514;BME280;39768;54.148;12.174;2023-03-14T07:03:52;98422.09;;;15.34;95.33
53514;BME280;39768;54.148;12.174;2023-03-14T07:07:56;98427.47;;;15.22;95.77
53514;BME280;39768;54.148;12.174;2023-03-14T07:11:58;98419.00;;;15.66;93.94
53514;BME280;39768;54.148;12.174;2023-03-14T07:16:00;98417.31;;;15.27;95.10
53514;BME280;39768;54.148;12.174;2023-03-14T07:20:02;98413.97;;;15.36;93.85
53514;BME280;39768;54.148;12.174;2023-03-14T07:24:08;98421.16;;;16.10;90.52
53514;BME280;39768;54.148;12.174;2023-03-14T07:28:11;98429.53;;;15.93;91.24
53514;BME280;39768;54.148;12.174;2023-03-14T07:32:15;98445.13;;;15.62;92.14
53514;BME280;39768;54.148;12.174;2023-03-14T07:36:17;98436.44;;;15.33;94.87
53514;BME280;39768;54.148;12.174;2023-03-14T07:40:21;98450.34;;;15.13;97.07
53514;BME280;39768;54.148;12.174;2023-03-14T07:44:23;98455.16;;;14.68;100.00
53514;BME280;39768;54.148;12.174;2023-03-14T07:48:25;98456.59;;;14.87;100.00
53514;BME280;39768;54.148;12.174;2023-03-14T07:52:28;98467.00;;;15.16;100.00
53514;BME280;39768;54.148;12.174;2023-03-14T07:56:29;98467.59;;;14.82;100.00
53514;BME280;39768;54.148;12.174;2023-03-14T08:00:31;98458.47;;;14.72;100.00
53514;BME280;39768;54.148;12.174;2023-03-14T08:04:32;98463.44;;;14.91;100.00
53514;BME280;39768;54.148;12.174;2023-03-14T08:08:34;98454.06;;;14.98;100.00
53514;BME280;39768;54.148;12.174;2023-03-14T08:12:36;98469.16;;;14.72;100.00
53514;BME280;39768;54.148;12.174;2023-03-14T08:16:37;98472.50;;;14.88;100.00
53514;BME280;39768;54.148;12.174;2023-03-14T08:20:39;98487.06;;;14.02;100.00
53514;BME280;39768;54.148;12.174;2023-03-14T08:24:40;98483.59;;;14.14;100.00
53514;BME280;39768;54.148;12.174;2023-03-14T08:28:42;98480.09;;;14.13;100.00
53514;BME280;39768;54.148;12.174;2023-03-14T08:32:43;98475.31;;;14.99;100.00
53514;BME280;39768;54.148;12.174;2023-03-14T08:36:45;98475.00;;;15.16;100.00
53514;BME280;39768;54.148;12.174;2023-03-14T08:40:46;98468.91;;;15.02;100.00
53514;BME280;39768;54.148;12.174;2023-03-14T08:44:48;98476.47;;;14.82;100.00
53514;BME280;39768;54.148;12.174;2023-03-14T08:48:49;98467.59;;;14.82;100.00
53514;BME280;39768;54.148;12.174;2023-03-14T08:52:51;98482.84;;;14.67;100.00
53514;BME280;39768;54.148;12.174;2023-03-14T08:56:53;98475.66;;;14.41;100.00
53514;BME280;39768;54.148;12.174;2023-03-14T09:00:54;98480.69;;;14.45;100.00
53514;BME280;39768;54.148;12.174;2023-03-14T09:04:56;98476.34;;;14.84;99.93
53514;BME280;39768;54.148;12.174;2023-03-14T09:08:57;98480.81;;;15.36;96.46
53514;BME280;39768;54.148;12.174;2023-03-14T09:12:59;98479.13;;;15.60;90.33
53514;BME280;39768;54.148;12.174;2023-03-14T09:17:02;98463.81;;;15.88;84.85
53514;BME280;39768;54.148;12.174;2023-03-14T09:21:04;98477.78;;;16.40;80.81
53514;BME280;39768;54.148;12.174;2023-03-14T09:25:07;98460.28;;;15.74;88.40
53514;BME280;39768;54.148;12.174;2023-03-14T09:29:08;98461.25;;;15.73;83.62
53514;BME280;39768;54.148;12.174;2023-03-14T09:33:10;98467.03;;;15.80;84.07
53514;BME280;39768;54.148;12.174;2023-03-14T09:37:11;98461.66;;;15.93;83.25
53514;BME280;39768;54.148;12.174;2023-03-14T09:41:21;98476.78;;;15.68;81.71
53514;BME280;39768;54.148;12.174;2023-03-14T09:45:31;98476.22;;;16.01;79.15
53514;BME280;39768;54.148;12.174;2023-03-14T09:49:36;98465.22;;;15.68;79.71
53514;BME280;39768;54.148;12.174;2023-03-14T09:53:44;98479.13;;;15.60;78.51
53514;BME280;39768;54.148;12.174;2023-03-14T09:57:48;98482.25;;;15.67;74.95
53514;BME280;39768;54.148;12.174;2023-03-14T10:01:51;98489.38;;;15.79;74.97
53514;BME280;39768;54.148;12.174;2023-03-14T10:05:55;98481.09;;;16.07;74.71
53514;BME280;39768;54.148;12.174;2023-03-14T10:09:58;98485.66;;;15.69;74.33
53514;BME280;39768;54.148;12.174;2023-03-14T10:18:05;98488.75;;;15.75;73.23
53514;BME280;39768;54.148;12.174;2023-03-14T10:22:14;98477.41;;;16.81;69.46
53514;BME280;39768;54.148;12.174;2023-03-14T10:26:18;98485.09;;;16.75;67.13
53514;BME280;39768;54.148;12.174;2023-03-14T10:30:37;98481.91;;;16.57;67.11
53514;BME280;39768;54.148;12.174;2023-03-14T10:35:04;98477.91;;;17.68;64.48
53514;BME280;39768;54.148;12.174;2023-03-14T10:43:44;98486.09;;;16.48;65.43
53514;BME280;39768;54.148;12.174;2023-03-14T10:47:49;98488.09;;;16.34;66.38
53514;BME280;39768;54.148;12.174;2023-03-14T10:51:51;98475.28;;;16.50;67.02
53514;BME280;39768;54.148;12.174;2023-03-14T10:55:52;98477.41;;;16.21;66.82
53514;BME280;39768;54.148;12.174;2023-03-14T10:59:56;98471.69;;;16.75;65.75
53514;BME280;39768;54.148;12.174;2023-03-14T11:08:37;98493.25;;;16.24;67.78
53514;BME280;39768;54.148;12.174;2023-03-14T11:17:19;98487.22;;;15.97;75.22
53514;BME280;39768;54.148;12.174;2023-03-14T11:21:41;98555.50;;;15.77;78.90
53514;BME280;39768;54.148;12.174;2023-03-14T11:30:43;98625.53;;;11.20;100.00
53514;BME280;39768;54.148;12.174;2023-03-14T11:34:51;98699.75;;;8.61;100.00
53514;BME280;39768;54.148;12.174;2023-03-14T11:38:57;98708.72;;;9.02;100.00
53514;BME280;39768;54.148;12.174;2023-03-14T11:47:17;98737.31;;;8.23;100.00
53514;BME280;39768;54.148;12.174;2023-03-14T11:51:24;98762.91;;;7.71;100.00
53514;BME280;39768;54.148;12.174;2023-03-14T11:55:37;98794.53;;;7.72;100.00
53514;BME280;39768;54.148;12.174;2023-03-14T12:00:02;98807.16;;;7.89;100.00
53514;BME280;39768;54.148;12.174;2023-03-14T12:04:20;98826.13;;;7.75;100.00
53514;BME280;39768;54.148;12.174;2023-03-14T12:08:42;98833.34;;;7.70;100.00
53514;BME280;39768;54.148;12.174;2023-03-14T12:12:44;98859.56;;;7.49;100.00
53514;BME280;39768;54.148;12.174;2023-03-14T12:16:48;98864.44;;;7.05;100.00
53514;BME280;39768;54.148;12.174;2023-03-14T12:20:53;98887.22;;;7.07;100.00
53514;BME280;39768;54.148;12.174;2023-03-14T12:25:14;98889.66;;;6.83;100.00
53514;BME280;39768;54.148;12.174;2023-03-14T12:29:17;98904.03;;;6.72;100.00
53514;BME280;39768;54.148;12.174;2023-03-14T12:33:19;98911.72;;;6.82;100.00
53514;BME280;39768;54.148;12.174;2023-03-14T12:37:36;98921.25;;;6.86;100.00
53514;BME280;39768;54.148;12.174;2023-03-14T12:41:51;98933.38;;;6.93;100.00
53514;BME280;39768;54.148;12.174;2023-03-14T12:46:15;98948.41;;;7.20;100.00
53514;BME280;39768;54.148;12.174;2023-03-14T12:50:34;98952.81;;;6.89;100.00
53514;BME280;39768;54.148;12.174;2023-03-14T12:54:45;98970.66;;;7.12;100.00
53514;BME280;39768;54.148;12.174;2023-03-14T12:59:13;98969.69;;;7.14;100.00
53514;BME280;39768;54.148;12.174;2023-03-14T13:03:21;98977.00;;;7.35;100.00
53514;BME280;39768;54.148;12.174;2023-03-14T13:11:45;98993.47;;;7.43;100.00
53514;BME280;39768;54.148;12.174;2023-03-14T13:15:48;98996.91;;;7.75;100.00
53514;BME280;39768;54.148;12.174;2023-03-14T13:19:56;99003.59;;;7.87;100.00
53514;BME280;39768;54.148;12.174;2023-03-14T13:24:17;99005.44;;;7.85;100.00
53514;BME280;39768;54.148;12.174;2023-03-14T13:28:21;99021.50;;;7.77;100.00
53514;BME280;39768;54.148;12.174;2023-03-14T13:32:28;99014.38;;;7.81;100.00
53514;BME280;39768;54.148;12.174;2023-03-14T13:36:29;99002.28;;;7.72;100.00
53514;BME280;39768;54.148;12.174;2023-03-14T13:40:32;99024.53;;;7.94;100.00
53514;BME280;39768;54.148;12.174;2023-03-14T13:44:37;99023.69;;;7.92;100.00
53514;BME280;39768;54.148;12.174;2023-03-14T13:48:44;99054.28;;;8.01;100.00
53514;BME280;39768;54.148;12.174;2023-03-14T13:52:54;99058.41;;;8.09;100.00
53514;BME280;39768;54.148;12.174;2023-03-14T13:57:04;99066.19;;;8.14;100.00
53514;BME280;39768;54.148;12.174;2023-03-14T14:01:25;99093.66;;;8.08;100.00
53514;BME280;39768;54.148;12.174;2023-03-14T14:05:29;99080.31;;;8.13;100.00
53514;BME280;39768;54.148;12.174;2023-03-14T14:09:38;99094.72;;;8.32;100.00
53514;BME280;39768;54.148;12.174;2023-03-14T14:13:40;99104.56;;;8.27;100.00
53514;BME280;39768;54.148;12.174;2023-03-14T14:17:52;99121.38;;;8.25;100.00
53514;BME280;39768;54.148;12.174;2023-03-14T14:21:55;99122.78;;;8.36;100.00
53514;BME280;39768;54.148;12.174;2023-03-14T14:25:58;99124.50;;;8.39;100.00
53514;BME280;39768;54.148;12.174;2023-03-14T14:30:06;99134.41;;;8.60;100.00
53514;BME280;39768;54.148;12.174;2023-03-14T14:34:19;99154.31;;;8.72;98.92
53514;BME280;39768;54.148;12.174;2023-03-14T14:38:20;99158.94;;;8.36;96.32
53514;BME280;39768;54.148;12.174;2023-03-14T14:42:27;99160.22;;;8.80;94.89
53514;BME280;39768;54.148;12.174;2023-03-14T14:46:32;99174.13;;;8.87;94.02
53514;BME280;39768;54.148;12.174;2023-03-14T14:50:37;99179.41;;;8.87;92.87
53514;BME280;39768;54.148;12.174;2023-03-14T14:54:53;99182.19;;;8.82;93.34
53514;BME280;39768;54.148;12.174;2023-03-14T14:58:59;99189.66;;;8.69;93.66
53514;BME280;39768;54.148;12.174;2023-03-14T15:03:03;99198.84;;;8.58;93.35
53514;BME280;39768;54.148;12.174;2023-03-14T15:07:04;99212.97;;;8.57;93.16
53514;BME280;39768;54.148;12.174;2023-03-14T15:11:05;99214.13;;;8.76;94.45
53514;BME280;39768;54.148;12.174;2023-03-14T15:15:08;99224.66;;;8.77;97.65
53514;BME280;39768;54.148;12.174;2023-03-14T15:19:21;99237.66;;;8.57;99.40
53514;BME280;39768;54.148;12.174;2023-03-14T15:23:26;99245.97;;;8.43;100.00
53514;BME280;39768;54.148;12.174;2023-03-14T15:27:28;99267.03;;;8.46;100.00
53514;BME280;39768;54.148;12.174;2023-03-14T15:31:32;99269.09;;;8.66;96.13
53514;BME280;39768;54.148;12.174;2023-03-14T15:35:36;99285.22;;;8.26;95.67
53514;BME280;39768;54.148;12.174;2023-03-14T15:39:39;99294.63;;;8.67;90.33
53514;BME280;39768;54.148;12.174;2023-03-14T15:43:41;99292.56;;;8.47;81.18
53514;BME280;39768;54.148;12.174;2023-03-14T15:47:42;99291.25;;;8.62;76.12
53514;BME280;39768;54.148;12.174;2023-03-14T15:51:44;99304.19;;;8.42;77.24
53514;BME280;39768;54.148;12.174;2023-03-14T15:55:45;99305.78;;;8.47;81.30
53514;BME280;39768;54.148;12.174;2023-03-14T15:59:47;99331.13;;;8.56;80.97
53514;BME280;39768;54.148;12.174;2023-03-14T16:03:49;99328.78;;;8.45;76.93
53514;BME280;39768;54.148;12.174;2023-03-14T16:07:52;99337.44;;;8.51;76.02
53514;BME280;39768;54.148;12.174;2023-03-14T16:11:53;99356.81;;;8.51;75.95
53514;BME280;39768;54.148;12.174;2023-03-14T16:15:57;99363.84;;;8.52;76.84
53514;BME280;39768;54.148;12.174;2023-03-14T16:19:59;99385.00;;;8.52;74.58
53514;BME280;39768;54.148;12.174;2023-03-14T16:24:01;99402.19;;;8.68;74.38
53514;BME280;39768;54.148;12.174;2023-03-14T16:28:03;99409.16;;;8.38;73.58
53514;BME280;39768;54.148;12.174;2023-03-14T16:32:11;99414.31;;;8.44;70.99
53514;BME280;39768;54.148;12.174;2023-03-14T16:36:13;99428.69;;;8.31;73.41
53514;BME280;39768;54.148;12.174;2023-03-14T16:40:15;99442.78;;;8.33;73.48
53514;BME280;39768;54.148;12.174;2023-03-14T16:44:17;99463.06;;;8.31;73.28
53514;BME280;39768;54.148;12.174;2023-03-14T16:48:19;99464.19;;;8.21;74.19
53514;BME280;39768;54.148;12.174;2023-03-14T16:52:20;99471.00;;;8.33;76.26
53514;BME280;39768;54.148;12.174;2023-03-14T16:56:22;99473.50;;;8.39;77.50
53514;BME280;39768;54.148;12.174;2023-03-14T17:00:24;99482.41;;;8.35;74.92
53514;BME280;39768;54.148;12.174;2023-03-14T17:04:25;99484.78;;;8.08;77.30
53514;BME280;39768;54.148;12.174;2023-03-14T17:08:27;99504.69;;;8.23;78.28
53514;BME280;39768;54.148;12.174;2023-03-14T17:12:28;99513.38;;;8.28;76.13
53514;BME280;39768;54.148;12.174;2023-03-14T17:16:30;99534.56;;;8.27;76.22
53514;BME280;39768;54.148;12.174;2023-03-14T17:20:31;99538.38;;;8.15;75.44
53514;BME280;39768;54.148;12.174;2023-03-14T17:24:33;99553.44;;;8.11;74.19
53514;BME280;39768;54.148;12.174;2023-03-14T17:28:34;99550.59;;;8.19;75.45
53514;BME280;39768;54.148;12.174;2023-03-14T17:32:36;99571.47;;;8.33;75.22
53514;BME280;39768;54.148;12.174;2023-03-14T17:36:37;99578.03;;;8.15;74.62
53514;BME280;39768;54.148;12.174;2023-03-14T17:40:39;99597.50;;;8.11;74.28
53514;BME280;39768;54.148;12.174;2023-03-14T17:44:40;99609.88;;;8.09;75.79
53514;BME280;39768;54.148;12.174;2023-03-14T17:48:44;99619.03;;;8.31;74.08
53514;BME280;39768;54.148;12.174;2023-03-14T17:52:46;99625.28;;;8.30;71.73
53514;BME280;39768;54.148;12.174;2023-03-14T17:56:48;99634.31;;;8.19;72.62
53514;BME280;39768;54.148;12.174;2023-03-14T18:00:49;99636.13;;;8.58;69.45
53514;BME280;39768;54.148;12.174;2023-03-14T18:04:51;99660.16;;;8.46;67.74
53514;BME280;39768;54.148;12.174;2023-03-14T18:08:53;99661.34;;;8.33;66.13
53514;BME280;39768;54.148;12.174;2023-03-14T18:12:57;99670.09;;;8.36;66.03
53514;BME280;39768;54.148;12.174;2023-03-14T18:16:58;99685.97;;;8.36;64.53
53514;BME280;39768;54.148;12.174;2023-03-14T18:20:59;99690.84;;;8.13;62.87
53514;BME280;39768;54.148;12.174;2023-03-14T18:25:01;99714.56;;;8.16;62.87
53514;BME280;39768;54.148;12.174;2023-03-14T18:29:03;99720.03;;;7.61;64.05
53514;BME280;39768;54.148;12.174;2023-03-14T18:33:04;99726.44;;;7.95;64.34
53514;BME280;39768;54.148;12.174;2023-03-14T18:37:06;99727.66;;;7.77;61.31
53514;BME280;39768;54.148;12.174;2023-03-14T18:41:09;99746.63;;;7.99;60.52
53514;BME280;39768;54.148;12.174;2023-03-14T18:45:11;99742.56;;;7.80;60.58
53514;BME280;39768;54.148;12.174;2023-03-14T18:49:13;99764.84;;;7.65;59.18
53514;BME280;39768;54.148;12.174;2023-03-14T18:53:15;99767.28;;;7.76;58.94
53514;BME280;39768;54.148;12.174;2023-03-14T18:57:16;99770.41;;;7.50;59.92
53514;BME280;39768;54.148;12.174;2023-03-14T19:01:18;99785.56;;;7.39;60.34
53514;BME280;39768;54.148;12.174;2023-03-14T19:05:19;99792.84;;;7.23;61.33
53514;BME280;39768;54.148;12.174;2023-03-14T19:09:21;99802.31;;;7.35;61.91
53514;BME280;39768;54.148;12.174;2023-03-14T19:13:22;99816.31;;;7.41;65.03
53514;BME280;39768;54.148;12.174;2023-03-14T19:17:24;99835.31;;;7.63;63.45
53514;BME280;39768;54.148;12.174;2023-03-14T19:21:29;99826.66;;;7.55;62.52
53514;BME280;39768;54.148;12.174;2023-03-14T19:25:31;99846.09;;;7.51;62.78
53514;BME280;39768;54.148;12.174;2023-03-14T19:29:32;99851.19;;;7.62;60.67
53514;BME280;39768;54.148;12.174;2023-03-14T19:33:39;99856.47;;;7.62;60.39
53514;BME280;39768;54.148;12.174;2023-03-14T19:37:41;99868.72;;;7.66;59.67
53514;BME280;39768;54.148;12.174;2023-03-14T19:41:42;99874.34;;;7.44;60.30
53514;BME280;39768;54.148;12.174;2023-03-14T19:45:44;99878.88;;;7.36;62.85
53514;BME280;39768;54.148;12.174;2023-03-14T19:49:45;99888.44;;;7.43;61.48
53514;BME280;39768;54.148;12.174;2023-03-14T19:53:47;99905.44;;;7.24;62.35
53514;BME280;39768;54.148;12.174;2023-03-14T19:57:49;99909.88;;;7.21;65.26
53514;BME280;39768;54.148;12.174;2023-03-14T20:01:52;99918.56;;;7.29;67.06
53514;BME280;39768;54.148;12.174;2023-03-14T20:05:55;99923.22;;;7.12;69.34
53514;BME280;39768;54.148;12.174;2023-03-14T20:09:56;99936.59;;;6.96;70.79
53514;BME280;39768;54.148;12.174;2023-03-14T20:13:58;99951.66;;;6.84;74.00
53514;BME280;39768;54.148;12.174;2023-03-14T20:17:59;99944.72;;;6.77;75.89
53514;BME280;39768;54.148;12.174;2023-03-14T20:22:01;99964.09;;;6.72;78.66
53514;BME280;39768;54.148;12.174;2023-03-14T20:26:04;99966.03;;;6.57;79.39
53514;BME280;39768;54.148;12.174;2023-03-14T20:30:08;99971.22;;;6.67;78.26
53514;BME280;39768;54.148;12.174;2023-03-14T20:34:12;99993.06;;;6.79;75.38
53514;BME280;39768;54.148;12.174;2023-03-14T20:38:14;99986.03;;;6.78;76.22
53514;BME280;39768;54.148;12.174;2023-03-14T20:42:16;100005.38;;;6.80;76.08
53514;BME280;39768;54.148;12.174;2023-03-14T20:46:18;100011.72;;;6.57;76.10
53514;BME280;39768;54.148;12.174;2023-03-14T20:50:20;100013.19;;;6.87;74.19
53514;BME280;39768;54.148;12.174;2023-03-14T20:54:21;100030.72;;;6.93;73.04
53514;BME280;39768;54.148;12.174;2023-03-14T20:58:24;100038.41;;;7.13;71.57
53514;BME280;39768;54.148;12.174;2023-03-14T21:02:26;100043.78;;;7.06;72.62
53514;BME280;39768;54.148;12.174;2023-03-14T21:06:27;100045.28;;;7.27;71.88
53514;BME280;39768;54.148;12.174;2023-03-14T21:10:29;100055.44;;;6.83;74.74
53514;BME280;39768;54.148;12.174;2023-03-14T21:14:31;100050.84;;;7.04;74.47
53514;BME280;39768;54.148;12.174;2023-03-14T21:18:32;100065.84;;;6.98;73.47
53514;BME280;39768;54.148;12.174;2023-03-14T21:22:34;100071.03;;;7.08;73.74
53514;BME280;39768;54.148;12.174;2023-03-14T21:26:35;100070.00;;;7.20;73.47
53514;BME280;39768;54.148;12.174;2023-03-14T21:30:37;100072.94;;;6.94;74.23
53514;BME280;39768;54.148;12.174;2023-03-14T21:34:38;100085.09;;;7.09;74.07
53514;BME280;39768;54.148;12.174;2023-03-14T21:38:40;100099.38;;;6.85;73.33
53514;BME280;39768;54.148;12.174;2023-03-14T21:42:41;100098.47;;;6.89;75.44
53514;BME280;39768;54.148;12.174;2023-03-14T21:46:43;100107.97;;;7.07;75.65
53514;BME280;39768;54.148;12.174;2023-03-14T21:50:46;100103.56;;;7.12;76.49
53514;BME280;39768;54.148;12.174;2023-03-14T21:54:48;100113.28;;;7.02;77.46